»·PEaware :: N218KD KAMA-KASE

N218KD :: KAMA-KASE

FLIGHT INFORMATION

Flight Status: Arrived
Operator: Privately registered:
United States
More flights under this callsign
Pilot: Kevin M. (7)
Aircraft: GULFSTREAM G-1159C GULFSTREAM 4
(GLF4)
More flights by this aircraft type
Origin: KAMA Amarillo Intl
United States
Destination: KASE Aspen-Pitkin Co/Sardy
United States
More flights between these airports :: More routes between these airports
Route: +PNH DBL
File this flight plan on PilotEdge
Remarks:
Altitude:
(Current/Filed)
30,000ft
Speed:
(Current/Filed)
480kts
Departed: 12-Jul-17 10:00 AM
Arrived: 12-Jul-17 10:54 AM
Distance/Time
Traveled:
344nm/0:54
Distance/Time
To Go:
Arrived

Flight Plot

Page will automatically refresh every two minutes.

Flight plan parsing failed; only flown route is shown


Map Options




Map Legend


Flown Route
Filed Route
Departure Airport
Arrival Airport
Navaid (VOR, NDB)
Fix

Horizontal Profiles

Position Reports

Time Latitude Longitude Heading Altitude Ground
Speed
12-Jul-17 09:58 35.218340 -101.709265 47 3615ft 19kts
12-Jul-17 09:59 35.220784 -101.705204 36 3615ft 0kts
12-Jul-17 10:00 35.220784 -101.705204 36 3615ft 0kts
12-Jul-17 10:01 35.223387 -101.704150 357 3615ft 20kts
12-Jul-17 10:02 35.227895 -101.698808 43 3615ft 16kts
12-Jul-17 10:03 35.228566 -101.703090 225 3615ft 81kts
12-Jul-17 10:04 35.189858 -101.753921 225 5769ft 272kts
12-Jul-17 10:05 35.148286 -101.830884 270 10311ft 313kts
12-Jul-17 10:06 35.220246 -101.915225 319 13185ft 452kts
12-Jul-17 10:07 35.326041 -102.030952 318 16011ft 563kts
12-Jul-17 10:08 35.442413 -102.158737 318 18695ft 564kts
12-Jul-17 10:09 35.556747 -102.284787 318 21616ft 554kts
12-Jul-17 10:10 35.668534 -102.408519 319 24780ft 542kts
12-Jul-17 10:11 35.778070 -102.530230 319 27956ft 529kts
12-Jul-17 10:12 35.885154 -102.649643 319 30144ft 531kts
12-Jul-17 10:13 35.994078 -102.771484 319 30154ft 536kts
12-Jul-17 10:14 36.103287 -102.894132 319 30161ft 536kts
12-Jul-17 10:15 36.212643 -103.017409 318 30174ft 535kts
12-Jul-17 10:16 36.321368 -103.140414 318 30174ft 533kts
12-Jul-17 10:17 36.429331 -103.263062 318 30174ft 531kts
12-Jul-17 10:18 36.537393 -103.386347 318 30174ft 531kts
12-Jul-17 10:19 36.644953 -103.509545 318 30174ft 532kts
12-Jul-17 10:20 36.752630 -103.633369 318 30175ft 532kts
12-Jul-17 10:21 36.858284 -103.755340 317 30202ft 531kts
12-Jul-17 10:22 36.965744 -103.879883 318 30228ft 532kts
12-Jul-17 10:23 37.071046 -104.002071 316 30227ft 518kts
12-Jul-17 10:24 37.175801 -104.124316 316 30228ft 522kts
12-Jul-17 10:25 37.281169 -104.247915 316 30228ft 523kts
12-Jul-17 10:26 37.386863 -104.372408 316 29371ft 531kts
12-Jul-17 10:27 37.493954 -104.499065 316 28243ft 531kts
12-Jul-17 10:28 37.599919 -104.624894 316 28227ft 530kts
12-Jul-17 10:29 37.705130 -104.750338 315 28177ft 531kts
12-Jul-17 10:30 37.811209 -104.877334 315 28137ft 531kts
12-Jul-17 10:31 37.917391 -105.004845 315 28147ft 533kts
12-Jul-17 10:32 38.024300 -105.133815 314 28141ft 539kts
12-Jul-17 10:33 38.128784 -105.260481 314 28240ft 539kts
12-Jul-17 10:34 38.235674 -105.390597 314 28245ft 539kts
12-Jul-17 10:35 38.340337 -105.518536 314 28335ft 539kts
12-Jul-17 10:36 38.445877 -105.648087 314 28418ft 539kts
12-Jul-17 10:37 38.552150 -105.779099 314 28421ft 539kts
12-Jul-17 10:38 38.657134 -105.909071 314 28417ft 539kts
12-Jul-17 10:39 38.763128 -106.040871 314 27837ft 545kts
12-Jul-17 10:40 38.867553 -106.171292 314 26033ft 552kts
12-Jul-17 10:41 38.976983 -106.308500 314 23875ft 565kts
12-Jul-17 10:42 39.086995 -106.447237 314 21763ft 576kts
12-Jul-17 10:43 39.196821 -106.586240 315 19663ft 580kts
12-Jul-17 10:44 39.303138 -106.721155 314 19417ft 488kts
12-Jul-17 10:45 39.385812 -106.823421 330 19369ft 378kts
12-Jul-17 10:46 39.472498 -106.852225 348 19362ft 298kts
12-Jul-17 10:47 39.544503 -106.873552 348 19366ft 284kts
12-Jul-17 10:48 39.612066 -106.912906 289 18108ft 281kts
12-Jul-17 10:49 39.595451 -107.006919 246 16719ft 276kts
12-Jul-17 10:50 39.542939 -107.018235 137 15648ft 263kts
12-Jul-17 10:51 39.486189 -106.953591 135 14045ft 282kts
12-Jul-17 10:52 39.429923 -106.898893 155 13690ft 236kts
12-Jul-17 10:53 39.365172 -106.887086 173 12919ft 237kts
12-Jul-17 10:54 39.307575 -106.881004 174 11976ft 188kts
12-Jul-17 10:55 39.259554 -106.889727 148 9280ft 162kts
12-Jul-17 10:56 39.229020 -106.871432 159 7827ft 117kts
12-Jul-17 10:57 39.217488 -106.864740 342 7827ft 8kts
12-Jul-17 10:58 39.220802 -106.865637 32 7827ft 10kts

Navigation Log

Ident Type
Flight plan parsing failed, navigation log unavailable